createdAt,value
2023-04-04T00:00:52.949Z,1026.0
2023-04-04T00:06:00.349Z,1025.9
2023-04-04T00:11:06.708Z,1025.8
2023-04-04T00:16:03.287Z,1025.9
2023-04-04T00:21:19.683Z,1025.8
2023-04-04T00:26:26.013Z,1025.8
2023-04-04T00:31:32.483Z,1025.8
2023-04-04T00:36:38.810Z,1025.8
2023-04-04T00:41:45.178Z,1025.7
2023-04-04T00:46:51.655Z,1025.8
2023-04-04T00:51:58.060Z,1025.7
2023-04-04T00:57:04.430Z,1025.7
2023-04-04T01:02:10.825Z,1025.6
2023-04-04T01:07:17.391Z,1025.6
2023-04-04T01:12:46.645Z,1025.6
2023-04-04T01:17:31.595Z,1025.6
2023-04-04T01:22:38.139Z,1025.7
2023-04-04T01:27:44.493Z,1025.7
2023-04-04T01:32:50.974Z,1025.6
2023-04-04T01:37:47.370Z,1025.6
2023-04-04T01:42:53.843Z,1025.6
2023-04-04T01:48:10.445Z,1025.6
2023-04-04T01:53:16.860Z,1025.5
2023-04-04T01:58:43.263Z,1025.5
2023-04-04T02:04:09.700Z,1025.6
2023-04-04T02:08:57.814Z,1025.6
2023-04-04T02:14:28.242Z,1025.5
2023-04-04T02:18:50.534Z,1025.5
2023-04-04T02:24:51.057Z,1025.6
2023-04-04T02:29:03.291Z,1025.6
2023-04-04T02:34:33.719Z,1025.6
2023-04-04T02:39:54.181Z,1025.5
2023-04-04T02:44:22.494Z,1025.5
2023-04-04T02:49:56.430Z,1025.4
2023-04-04T02:54:38.897Z,1025.4
2023-04-04T02:59:45.393Z,1025.3
2023-04-04T03:04:51.782Z,1025.3
2023-04-04T03:09:58.164Z,1025.3
2023-04-04T03:15:24.774Z,1025.2
2023-04-04T03:20:11.020Z,1025.2
2023-04-04T03:25:17.494Z,1025.2
2023-04-04T03:30:23.990Z,1025.1
2023-04-04T03:35:30.477Z,1025.1
2023-04-04T03:40:36.786Z,1025.0
2023-04-04T03:45:43.747Z,1024.9
2023-04-04T03:50:50.110Z,1024.9
2023-04-04T03:56:20.507Z,1025.0
2023-04-04T04:01:06.489Z,1025.0
2023-04-04T04:06:12.916Z,1025.0
2023-04-04T04:11:19.311Z,1025.1
2023-04-04T04:16:25.723Z,1025.0
2023-04-04T04:21:52.182Z,1025.0
2023-04-04T04:26:38.446Z,1024.9
2023-04-04T04:32:28.950Z,1025.0
2023-04-04T04:37:15.287Z,1024.9
2023-04-04T04:42:41.672Z,1025.0
2023-04-04T04:47:58.106Z,1024.8
2023-04-04T05:15:24.511Z,1025.0
2023-04-04T05:20:31.740Z,1025.1
2023-04-04T05:25:58.175Z,1025.2
2023-04-04T05:31:04.566Z,1025.2
2023-04-04T05:35:51.000Z,1025.3
2023-04-04T05:40:57.281Z,1025.2
2023-04-04T05:46:03.714Z,1025.3
2023-04-04T05:51:11.283Z,1025.3
2023-04-04T05:56:40.069Z,1025.3
2023-04-04T06:02:28.573Z,1025.4
2023-04-04T06:06:32.798Z,1025.4
2023-04-04T06:11:39.215Z,1025.5
2023-04-04T06:17:09.647Z,1025.4
2023-04-04T06:22:46.083Z,1025.5
2023-04-04T06:27:12.398Z,1025.6
2023-04-04T06:32:45.924Z,1025.7
2023-04-04T06:37:55.692Z,1025.6
2023-04-04T06:43:22.719Z,1025.7
2023-04-04T06:48:22.093Z,1025.8
2023-04-04T06:53:26.451Z,1025.8
2023-04-04T06:57:58.766Z,1025.8
2023-04-04T07:03:09.175Z,1025.8
2023-04-04T07:08:53.769Z,1025.6
2023-04-04T07:13:37.205Z,1025.6
2023-04-04T07:18:49.606Z,1025.7
2023-04-04T07:23:31.946Z,1025.7
2023-04-04T07:29:58.426Z,1025.7
2023-04-04T07:34:24.728Z,1025.7
2023-04-04T07:39:15.089Z,1025.6
2023-04-04T07:44:01.464Z,1025.7
2023-04-04T07:49:04.092Z,1025.7
2023-04-04T07:54:14.390Z,1025.6
2023-04-04T07:59:20.821Z,1025.4
2023-04-04T08:04:27.242Z,1025.3
2023-04-04T08:09:53.574Z,1025.3
2023-04-04T08:14:15.878Z,1025.3
2023-04-04T08:19:22.256Z,1025.1
2023-04-04T08:24:32.282Z,1025.1
2023-04-04T08:29:40.212Z,1025.0
2023-04-04T08:34:46.602Z,1025.0
2023-04-04T08:39:52.999Z,1024.9
2023-04-04T08:44:59.357Z,1024.9
2023-04-04T08:50:29.794Z,1024.8
2023-04-04T08:55:12.247Z,1024.7
2023-04-04T09:00:18.518Z,1024.7
2023-04-04T09:05:24.972Z,1024.6
2023-04-04T09:10:31.366Z,1024.6
2023-04-04T09:15:37.749Z,1024.6
2023-04-04T09:21:04.160Z,1024.5
2023-04-04T09:26:28.593Z,1024.4
2023-04-04T09:30:56.885Z,1024.3
2023-04-04T09:36:03.379Z,1024.2
2023-04-04T09:41:09.931Z,1024.1
2023-04-04T09:46:16.308Z,1024.0
2023-04-04T09:51:22.654Z,1024.0
2023-04-04T09:56:29.014Z,1024.0
2023-04-04T10:01:35.479Z,1024.0
2023-04-04T10:06:41.776Z,1024.0
2023-04-04T10:12:12.203Z,1024.0
2023-04-04T10:17:18.637Z,1023.8
2023-04-04T10:22:58.258Z,1023.8
2023-04-04T10:27:51.283Z,1023.7
2023-04-04T10:32:55.710Z,1023.7
2023-04-04T10:38:25.975Z,1023.7
2023-04-04T10:43:49.388Z,1023.6
2023-04-04T10:48:59.988Z,1023.5
2023-04-04T10:53:47.340Z,1023.4
2023-04-04T10:59:23.802Z,1023.4
2023-04-04T11:04:00.228Z,1023.2
2023-04-04T11:09:02.691Z,1023.4
2023-04-04T11:15:01.214Z,1023.2
2023-04-04T11:19:47.648Z,1023.2
2023-04-04T11:24:01.960Z,1023.2
2023-04-04T11:30:10.573Z,1022.9
2023-04-04T11:34:15.082Z,1023.0
2023-04-04T11:39:41.518Z,1022.9
2023-04-04T11:44:51.202Z,1022.9
2023-04-04T11:50:33.698Z,1023.0
2023-04-04T11:54:43.963Z,1023.2
2023-04-04T12:00:29.427Z,1023.0
2023-04-04T12:04:55.774Z,1023.1
2023-04-04T12:10:03.500Z,1023.2
2023-04-04T12:15:17.254Z,1023.0
2023-04-04T12:20:18.443Z,1023.1
2023-04-04T12:25:24.851Z,1023.3
2023-04-04T12:30:31.389Z,1023.1
2023-04-04T12:36:01.862Z,1023.2
2023-04-04T12:40:44.175Z,1022.9
2023-04-04T12:45:50.575Z,1022.9
2023-04-04T12:50:56.960Z,1022.8
2023-04-04T12:56:04.822Z,1022.7
2023-04-04T13:01:31.047Z,1022.9
2023-04-04T13:06:17.434Z,1022.5
2023-04-04T13:11:43.824Z,1022.6
2023-04-04T13:16:33.838Z,1022.4
2023-04-04T13:22:24.274Z,1022.1
2023-04-04T13:27:06.698Z,1022.7
2023-04-04T13:31:52.946Z,1022.4
2023-04-04T13:37:23.522Z,1022.7
2023-04-04T13:42:29.916Z,1022.3
2023-04-04T13:47:12.237Z,1022.3
2023-04-04T13:52:18.605Z,1022.2
2023-04-04T13:57:25.110Z,1022.0
2023-04-04T14:02:52.462Z,1021.9
2023-04-04T14:07:57.915Z,1021.8
2023-04-04T14:13:56.376Z,1021.8
2023-04-04T14:17:50.663Z,1021.7
2023-04-04T14:23:31.104Z,1021.7
2023-04-04T14:29:27.099Z,1021.6
2023-04-04T14:33:13.429Z,1021.5
2023-04-04T14:39:22.894Z,1021.5
2023-04-04T14:43:50.339Z,1021.5
2023-04-04T14:48:57.747Z,1021.5
2023-04-04T14:53:40.063Z,1021.3
2023-04-04T14:58:46.588Z,1021.3
2023-04-04T15:04:50.179Z,1021.4
2023-04-04T15:09:00.437Z,1021.2
2023-04-04T15:14:06.882Z,1021.3
2023-04-04T15:19:37.257Z,1021.5
2023-04-04T15:24:19.582Z,1021.4
2023-04-04T15:29:50.010Z,1021.2
2023-04-04T15:34:32.362Z,1021.2
2023-04-04T15:39:46.213Z,1021.1
2023-04-04T15:44:45.348Z,1021.1
2023-04-04T15:49:55.309Z,1021.2
2023-04-04T15:55:01.650Z,1021.3
2023-04-04T16:00:08.049Z,1021.2
2023-04-04T16:05:14.585Z,1021.2
2023-04-04T16:10:10.928Z,1021.1
2023-04-04T16:15:28.888Z,1021.1
2023-04-04T16:20:34.285Z,1021.2
2023-04-04T16:25:41.647Z,1021.0
2023-04-04T16:30:48.022Z,1020.9
2023-04-04T16:35:54.456Z,1021.0
2023-04-04T16:41:00.808Z,1021.0
2023-04-04T16:46:09.343Z,1021.0
2023-04-04T16:51:15.863Z,1021.0
2023-04-04T16:56:29.790Z,1021.0
2023-04-04T17:01:32.324Z,1021.1
2023-04-04T17:06:40.237Z,1021.0
2023-04-04T17:11:46.682Z,1021.0
2023-04-04T17:16:53.331Z,1021.0
2023-04-04T17:21:59.515Z,1020.9
2023-04-04T17:27:05.906Z,1020.9
2023-04-04T17:32:12.414Z,1020.9
2023-04-04T17:37:38.794Z,1020.9
2023-04-04T17:42:25.112Z,1020.8
2023-04-04T17:47:32.499Z,1020.8
2023-04-04T17:52:38.883Z,1020.8
2023-04-04T17:57:45.330Z,1020.8
2023-04-04T18:02:41.726Z,1020.8
2023-04-04T18:07:58.078Z,1020.8
2023-04-04T18:13:04.485Z,1020.8
2023-04-04T18:18:10.884Z,1020.8
2023-04-04T18:23:17.250Z,1020.8
2023-04-04T18:28:23.654Z,1020.9
2023-04-04T18:33:30.009Z,1020.9
2023-04-04T18:38:36.392Z,1020.9
2023-04-04T18:43:42.799Z,1020.9
2023-04-04T18:55:06.772Z,1021.1
2023-04-04T18:59:50.787Z,1021.0
2023-04-04T19:05:20.610Z,1021.0
2023-04-04T19:17:41.391Z,1021.1
2023-04-04T19:21:47.604Z,1021.1
2023-04-04T19:26:16.868Z,1021.2
2023-04-04T19:31:22.441Z,1021.2
2023-04-04T19:36:48.917Z,1021.2
2023-04-04T19:41:35.271Z,1021.1
2023-04-04T19:47:05.699Z,1021.2
2023-04-04T19:51:48.026Z,1021.2
2023-04-04T19:56:55.653Z,1021.2
2023-04-04T20:02:02.027Z,1021.2
2023-04-04T20:07:28.447Z,1021.3
2023-04-04T20:12:14.835Z,1021.3
2023-04-04T20:17:21.201Z,1021.3
2023-04-04T20:22:27.603Z,1021.2
2023-04-04T20:27:34.049Z,1021.2
2023-04-04T20:32:40.452Z,1021.3
2023-04-04T20:38:06.799Z,1021.2
2023-04-04T20:42:53.190Z,1021.2
2023-04-04T20:48:23.566Z,1021.3
2023-04-04T20:54:04.125Z,1021.3
2023-04-04T20:58:13.596Z,1021.3
2023-04-04T21:04:04.025Z,1021.3
2023-04-04T21:08:26.338Z,1021.3
2023-04-04T21:14:16.811Z,1021.2
2023-04-04T21:18:59.099Z,1021.3
2023-04-04T21:24:29.507Z,1021.1
2023-04-04T21:29:35.921Z,1021.2
2023-04-04T21:33:58.243Z,1021.1
2023-04-04T21:38:54.633Z,1021.1
2023-04-04T21:44:11.045Z,1021.1
2023-04-04T21:50:39.999Z,1021.1
2023-04-04T21:54:23.887Z,1021.1
2023-04-04T21:59:54.290Z,1021.0
2023-04-04T22:05:56.841Z,1021.0
2023-04-04T22:10:07.032Z,1021.0
2023-04-04T22:15:13.474Z,1021.0
2023-04-04T22:19:45.906Z,1021.0
2023-04-04T22:25:22.331Z,1020.9
2023-04-04T22:30:08.661Z,1020.9
2023-04-04T22:36:18.144Z,1020.9
2023-04-04T22:40:10.389Z,1020.9
2023-04-04T22:45:27.811Z,1020.9
2023-04-04T22:50:36.397Z,1021.0
2023-04-04T22:56:06.835Z,1020.9
2023-04-04T23:01:13.390Z,1020.8
2023-04-04T23:05:55.540Z,1020.8
2023-04-04T23:11:01.966Z,1020.7
2023-04-04T23:16:08.439Z,1020.7
2023-04-04T23:21:34.899Z,1020.9
2023-04-04T23:26:44.797Z,1020.8
2023-04-04T23:31:55.223Z,1020.8
2023-04-04T23:36:39.714Z,1020.7
2023-04-04T23:41:46.081Z,1020.6
2023-04-04T23:46:52.588Z,1020.7
2023-04-04T23:51:58.926Z,1020.7
2023-04-04T23:57:05.286Z,1020.7
